createdAt,value
2019-03-22T00:00:34.351Z,19.10
2019-03-22T00:05:38.739Z,20.10
2019-03-22T00:10:43.123Z,21.43
2019-03-22T00:15:47.588Z,18.98
2019-03-22T00:20:51.952Z,17.80
2019-03-22T00:25:56.294Z,18.30
2019-03-22T00:31:00.668Z,18.63
2019-03-22T00:36:05.215Z,18.93
2019-03-22T00:41:09.570Z,19.80
2019-03-22T00:46:13.964Z,18.50
2019-03-22T00:51:18.335Z,19.33
2019-03-22T00:56:22.693Z,17.23
2019-03-22T01:01:27.243Z,18.33
2019-03-22T01:06:31.591Z,16.57
2019-03-22T01:11:36.145Z,16.70
2019-03-22T01:16:40.663Z,17.10
2019-03-22T01:21:45.693Z,18.50
2019-03-22T01:26:50.077Z,16.50
2019-03-22T01:31:54.594Z,19.50
2019-03-22T01:36:58.979Z,16.90
2019-03-22T01:42:03.419Z,16.80
2019-03-22T01:47:07.765Z,17.67
2019-03-22T01:52:12.154Z,16.40
2019-03-22T01:57:16.626Z,17.07
2019-03-22T02:02:20.975Z,18.77
2019-03-22T02:07:25.346Z,17.30
2019-03-22T02:12:29.692Z,15.63
2019-03-22T02:17:34.064Z,21.27
2019-03-22T02:22:38.487Z,17.30
2019-03-22T02:27:43.201Z,17.37
2019-03-22T02:32:47.578Z,18.83
2019-03-22T02:37:51.919Z,18.90
2019-03-22T02:42:56.392Z,17.27
2019-03-22T02:48:00.743Z,18.67
2019-03-22T02:53:05.099Z,18.20
2019-03-22T02:58:20.570Z,19.70
2019-03-22T03:03:15.587Z,20.33
2019-03-22T03:08:19.926Z,18.87
2019-03-22T03:13:24.309Z,17.27
2019-03-22T03:18:28.659Z,15.93
2019-03-22T03:23:33.026Z,15.87
2019-03-22T03:28:37.716Z,16.17
2019-03-22T03:33:42.249Z,18.57
2019-03-22T03:38:46.588Z,18.70
2019-03-22T03:43:50.950Z,18.73
2019-03-22T03:48:55.325Z,16.17
2019-03-22T03:53:59.723Z,15.93
2019-03-22T03:59:04.082Z,19.53
2019-03-22T04:04:08.475Z,18.77
2019-03-22T04:09:12.827Z,16.80
2019-03-22T04:14:17.210Z,17.07
2019-03-22T04:19:21.585Z,18.30
2019-03-22T04:24:26.005Z,18.60
2019-03-22T04:29:30.368Z,19.57
2019-03-22T04:34:34.783Z,15.50
2019-03-22T04:39:39.164Z,17.97
2019-03-22T04:44:43.553Z,20.23
2019-03-22T04:49:48.797Z,18.77
2019-03-22T04:54:54.870Z,17.23
2019-03-22T04:59:59.537Z,18.63
2019-03-22T05:05:05.022Z,18.50
2019-03-22T05:10:11.143Z,18.90
2019-03-22T05:15:17.187Z,22.47
2019-03-22T05:20:23.390Z,19.97
2019-03-22T05:25:28.009Z,17.30
2019-03-22T05:30:53.595Z,20.83
2019-03-22T05:35:58.136Z,18.07
2019-03-22T05:41:02.528Z,17.20
2019-03-22T05:46:06.879Z,22.53
2019-03-22T05:51:12.298Z,18.27
2019-03-22T05:56:16.711Z,15.50
2019-03-22T06:01:21.070Z,17.97
2019-03-22T06:06:25.451Z,20.67
2019-03-22T06:11:29.823Z,18.87
2019-03-22T06:16:34.198Z,18.23
2019-03-22T06:21:38.593Z,18.83
2019-03-22T06:26:42.950Z,18.23
2019-03-22T06:31:47.329Z,21.67
2019-03-22T06:36:51.710Z,18.27
2019-03-22T06:41:56.129Z,19.17
2019-03-22T06:47:00.582Z,16.93
2019-03-22T06:52:05.018Z,18.13
2019-03-22T06:57:09.462Z,17.30
2019-03-22T07:02:13.852Z,20.47
2019-03-22T07:07:18.359Z,15.70
2019-03-22T07:12:22.715Z,17.10
2019-03-22T07:17:27.071Z,17.87
2019-03-22T07:22:31.555Z,17.60
2019-03-22T07:27:35.898Z,20.20
2019-03-22T07:32:40.263Z,20.60
2019-03-22T07:37:44.632Z,19.77
2019-03-22T07:42:49.063Z,18.27
2019-03-22T07:47:55.819Z,21.93
2019-03-22T07:52:59.525Z,17.77
2019-03-22T07:58:03.956Z,19.27
2019-03-22T08:03:08.337Z,21.13
2019-03-22T08:08:12.693Z,21.67
2019-03-22T08:13:17.055Z,24.33
2019-03-22T08:18:21.442Z,18.20
2019-03-22T08:23:25.808Z,21.50
2019-03-22T08:28:30.210Z,22.17
2019-03-22T08:33:34.768Z,21.77
2019-03-22T08:38:39.134Z,20.00
2019-03-22T08:43:43.488Z,20.03
2019-03-22T08:48:47.851Z,21.83
2019-03-22T08:53:55.393Z,21.90
2019-03-22T08:58:58.335Z,23.27
2019-03-22T09:04:02.672Z,22.73
2019-03-22T09:09:07.884Z,20.73
2019-03-22T09:14:12.270Z,21.03
2019-03-22T09:19:16.604Z,23.33
2019-03-22T09:24:21.002Z,23.73
2019-03-22T09:29:25.401Z,26.20
2019-03-22T09:34:34.008Z,24.13
2019-03-22T09:39:35.904Z,22.70
2019-03-22T09:44:44.459Z,21.50
2019-03-22T09:49:46.349Z,24.00
2019-03-22T09:54:50.741Z,24.37
2019-03-22T09:59:55.122Z,25.50
2019-03-22T10:04:59.476Z,26.55
2019-03-22T10:10:06.455Z,27.73
2019-03-22T10:15:10.847Z,30.43
2019-03-22T10:20:15.412Z,28.47
2019-03-22T10:25:19.823Z,36.87
2019-03-22T10:30:24.158Z,32.87
2019-03-22T10:35:28.550Z,32.20
2019-03-22T10:40:32.939Z,33.87
2019-03-22T10:45:37.399Z,33.03
2019-03-22T10:50:41.840Z,37.03
2019-03-22T10:55:46.249Z,34.20
2019-03-22T11:00:50.609Z,32.37
2019-03-22T11:05:54.991Z,34.50
2019-03-22T11:10:59.351Z,33.90
2019-03-22T11:16:04.064Z,32.20
2019-03-22T11:21:08.554Z,35.87
2019-03-22T11:26:13.035Z,33.23
2019-03-22T11:31:17.411Z,32.80
2019-03-22T11:36:21.837Z,29.17
2019-03-22T11:41:26.239Z,29.43
2019-03-22T11:46:31.145Z,30.70
2019-03-22T11:51:36.181Z,30.23
2019-03-22T11:56:40.569Z,29.70
2019-03-22T12:01:44.913Z,34.53
2019-03-22T12:06:49.420Z,29.90
2019-03-22T12:11:53.748Z,29.87
2019-03-22T12:16:58.172Z,26.47
2019-03-22T12:22:03.635Z,27.00
2019-03-22T12:27:08.082Z,25.43
2019-03-22T12:32:12.445Z,25.93
2019-03-22T12:37:16.835Z,25.90
2019-03-22T12:42:21.221Z,25.30
2019-03-22T12:47:25.643Z,24.63
2019-03-22T12:52:31.384Z,25.07
2019-03-22T12:57:35.850Z,24.50
2019-03-22T13:02:42.478Z,25.83
2019-03-22T13:07:46.696Z,23.13
2019-03-22T13:12:51.157Z,23.70
2019-03-22T13:17:56.029Z,23.18
2019-03-22T13:23:00.409Z,22.00
2019-03-22T13:28:04.777Z,22.43
2019-03-22T13:33:09.152Z,23.90
2019-03-22T13:38:13.554Z,22.40
2019-03-22T13:43:18.012Z,20.97
2019-03-22T13:48:22.474Z,30.03
2019-03-22T13:53:26.846Z,26.07
2019-03-22T13:58:31.235Z,26.03
2019-03-22T14:03:35.594Z,25.37
2019-03-22T14:08:39.977Z,26.10
2019-03-22T14:13:44.335Z,29.17
2019-03-22T14:18:48.730Z,29.73
2019-03-22T14:23:53.085Z,25.87
2019-03-22T14:28:57.470Z,22.93
2019-03-22T14:34:01.834Z,24.27
2019-03-22T14:39:08.456Z,23.73
2019-03-22T14:44:12.842Z,25.70
2019-03-22T14:49:17.210Z,21.47
2019-03-22T14:54:21.629Z,20.63
2019-03-22T14:59:26.069Z,19.47
2019-03-22T15:04:30.417Z,21.67
2019-03-22T15:09:34.799Z,21.03
2019-03-22T15:14:49.558Z,22.20
2019-03-22T15:20:07.683Z,22.20
2019-03-22T15:25:29.969Z,24.30
2019-03-22T15:30:38.920Z,19.20
2019-03-22T15:35:51.182Z,12.93
2019-03-22T15:40:58.528Z,11.27
2019-03-22T15:46:02.951Z,14.40
2019-03-22T15:51:07.396Z,11.80
2019-03-22T15:56:11.746Z,18.90
2019-03-22T16:01:16.293Z,13.43
2019-03-22T16:06:20.964Z,19.83
2019-03-22T16:11:25.300Z,22.97
2019-03-22T16:16:29.678Z,23.33
2019-03-22T16:21:34.083Z,27.10
2019-03-22T16:26:38.474Z,22.57
2019-03-22T16:31:42.894Z,26.40
2019-03-22T16:36:47.239Z,22.40
2019-03-22T16:41:51.679Z,20.97
2019-03-22T16:46:56.064Z,19.43
2019-03-22T16:52:00.449Z,20.50
2019-03-22T16:57:04.906Z,20.43
2019-03-22T17:02:09.294Z,17.73
2019-03-22T17:07:13.636Z,18.03
2019-03-22T17:12:18.034Z,19.50
2019-03-22T17:17:22.404Z,18.00
2019-03-22T17:22:26.811Z,19.00
2019-03-22T17:27:31.182Z,16.33
2019-03-22T17:32:35.530Z,16.87
2019-03-22T17:37:39.910Z,18.07
2019-03-22T17:42:44.346Z,19.53
2019-03-22T17:47:54.051Z,18.80
2019-03-22T17:52:58.841Z,42.53
2019-03-22T17:58:03.654Z,17.32
2019-03-22T18:03:08.092Z,16.33
2019-03-22T18:08:12.469Z,15.03
2019-03-22T18:13:17.062Z,20.33
2019-03-22T18:18:21.479Z,18.37
2019-03-22T18:23:35.502Z,16.97
2019-03-22T18:28:33.441Z,16.77
2019-03-22T18:33:37.836Z,19.53
2019-03-22T18:38:42.325Z,20.60
2019-03-22T18:43:46.768Z,18.23
2019-03-22T18:48:51.174Z,18.70
2019-03-22T18:53:55.557Z,24.27
2019-03-22T18:59:00.995Z,27.67
2019-03-22T19:04:05.476Z,22.27
2019-03-22T19:09:10.017Z,24.03
2019-03-22T19:14:14.447Z,24.13
2019-03-22T19:19:18.801Z,23.17
2019-03-22T19:24:23.350Z,81.77
2019-03-22T19:29:27.769Z,40.97
2019-03-22T19:34:32.117Z,24.60
2019-03-22T19:39:36.659Z,25.63
2019-03-22T19:44:41.049Z,27.33
2019-03-22T19:49:45.544Z,28.05
2019-03-22T19:54:50.009Z,29.73
2019-03-22T19:59:54.447Z,26.37
2019-03-22T20:05:04.726Z,29.80
2019-03-22T20:10:11.545Z,27.90
2019-03-22T20:15:15.925Z,29.63
2019-03-22T20:20:20.273Z,31.77
2019-03-22T20:25:24.640Z,30.23
2019-03-22T20:30:29.038Z,31.93
2019-03-22T20:35:33.412Z,33.97
2019-03-22T20:40:37.789Z,31.67
2019-03-22T20:45:42.152Z,30.50
2019-03-22T20:50:46.600Z,37.73
2019-03-22T20:55:51.027Z,35.07
2019-03-22T21:00:55.404Z,34.60
2019-03-22T21:06:00.089Z,37.00
2019-03-22T21:11:04.707Z,36.30
2019-03-22T21:16:09.286Z,38.30
2019-03-22T21:21:13.741Z,38.20
2019-03-22T21:26:18.101Z,34.40
2019-03-22T21:31:22.464Z,36.60
2019-03-22T21:36:30.081Z,36.33
2019-03-22T21:41:34.450Z,36.27
2019-03-22T21:46:38.854Z,38.50
2019-03-22T21:51:43.616Z,36.10
2019-03-22T21:56:48.069Z,35.57
2019-03-22T22:01:52.485Z,38.30
2019-03-22T22:06:56.967Z,36.90
2019-03-22T22:12:01.428Z,39.27
2019-03-22T22:17:06.056Z,37.77
2019-03-22T22:22:10.735Z,38.73
2019-03-22T22:27:15.186Z,39.60
2019-03-22T22:32:19.638Z,36.33
2019-03-22T22:37:24.599Z,35.83
2019-03-22T22:42:29.384Z,39.20
2019-03-22T22:47:35.504Z,35.80
2019-03-22T22:52:42.675Z,35.47
2019-03-22T22:57:47.078Z,39.73
2019-03-22T23:02:51.611Z,34.10
2019-03-22T23:07:57.216Z,38.20
2019-03-22T23:13:01.734Z,33.95
2019-03-22T23:18:06.427Z,34.60
2019-03-22T23:23:10.885Z,32.97
2019-03-22T23:28:15.405Z,34.93
2019-03-22T23:33:20.998Z,34.73
2019-03-22T23:38:27.143Z,36.93
2019-03-22T23:43:31.601Z,33.73
2019-03-22T23:48:36.047Z,35.70
2019-03-22T23:53:40.507Z,38.07
2019-03-22T23:58:45.061Z,31.30
